Time;durP1;ratioP1;P1;durP2;ratioP2;P2;SDS_P1;SDS_P2;PMS_P1;PMS_P2;Temp;Humidity;BMP_temperature;BMP_pressure;BME280_temperature;BME280_humidity;BME280_pressure;Samples;Min_cycle;Max_cycle;Signal;HPM_P1;HPM_P2
2021/08/01 00:01:22;;;;;;;12.30;6.60;;;17.10;99.90;;;;;;5099859;28;20537;-82
2021/08/01 00:03:50;;;;;;;12.93;7.00;;;17.20;99.90;;;;;;5100363;28;20551;-82
2021/08/01 00:06:17;;;;;;;12.80;7.80;;;17.20;99.90;;;;;;5100166;28;20535;-82
2021/08/01 00:08:45;;;;;;;12.90;7.10;;;17.20;99.90;;;;;;5100985;28;20483;-82
2021/08/01 00:11:12;;;;;;;12.57;6.63;;;17.20;99.90;;;;;;5102144;28;20482;-81
2021/08/01 00:13:39;;;;;;;11.90;6.70;;;17.20;99.90;;;;;;5101374;28;20519;-81
2021/08/01 00:16:06;;;;;;;12.67;7.53;;;17.20;99.90;;;;;;5101802;28;20453;-81
2021/08/01 00:18:33;;;;;;;11.30;6.70;;;17.10;99.90;;;;;;5096918;28;20453;-80
2021/08/01 00:21:02;;;;;;;12.83;7.17;;;17.10;99.90;;;;;;5096883;28;20457;-81
2021/08/01 00:23:29;;;;;;;10.60;6.40;;;17.20;99.90;;;;;;5096460;28;20492;-81
2021/08/01 00:25:57;;;;;;;12.57;7.43;;;17.20;99.90;;;;;;5096824;28;20478;-80
2021/08/01 00:28:24;;;;;;;12.17;7.30;;;17.20;99.90;;;;;;5096625;28;20455;-80
2021/08/01 00:30:51;;;;;;;12.23;7.07;;;17.20;99.90;;;;;;5096183;28;20476;-81
2021/08/01 00:33:18;;;;;;;14.83;7.20;;;17.20;99.90;;;;;;5099185;28;20454;-82
2021/08/01 00:35:45;;;;;;;11.63;6.77;;;17.20;99.90;;;;;;5096804;28;20446;-81
2021/08/01 00:38:13;;;;;;;12.43;6.80;;;17.20;99.90;;;;;;5095662;28;20467;-81
2021/08/01 00:40:40;;;;;;;12.90;7.10;;;17.20;99.90;;;;;;5095792;28;20966;-81
2021/08/01 00:43:07;;;;;;;12.50;7.37;;;17.20;99.90;;;;;;5096524;28;20485;-80
2021/08/01 00:45:35;;;;;;;12.80;6.97;;;17.10;99.90;;;;;;5096155;28;20449;-81
2021/08/01 00:48:02;;;;;;;11.97;7.90;;;17.10;99.90;;;;;;5096497;28;20868;-81
2021/08/01 00:50:29;;;;;;;11.97;7.83;;;17.10;99.90;;;;;;5096463;28;20448;-81
2021/08/01 00:52:56;;;;;;;13.43;7.77;;;17.10;99.90;;;;;;5096156;28;20558;-81
2021/08/01 00:55:25;;;;;;;10.80;6.50;;;17.00;99.90;;;;;;5096470;28;20450;-81
2021/08/01 00:57:52;;;;;;;14.40;8.50;;;17.00;99.90;;;;;;5107781;28;20508;-83
2021/08/01 01:00:30;;;;;;;15.10;7.67;;;17.00;99.90;;;;;;5107170;28;20518;-79
2021/08/01 01:03:03;;;;;;;14.43;8.20;;;17.00;99.90;;;;;;5099116;28;20510;-82
2021/08/01 01:05:35;;;;;;;12.50;7.47;;;17.00;99.90;;;;;;5101261;28;21030;-82
2021/08/01 01:08:10;;;;;;;13.30;8.30;;;16.90;99.90;;;;;;5102449;28;20448;-82
2021/08/01 01:10:42;;;;;;;11.83;7.13;;;16.90;99.90;;;;;;5102819;28;20454;-82
2021/08/01 01:13:12;;;;;;;13.37;8.67;;;16.90;99.90;;;;;;5102644;28;20472;-82
2021/08/01 01:15:44;;;;;;;12.37;7.37;;;16.80;99.90;;;;;;5102474;28;20969;-82
2021/08/01 01:18:15;;;;;;;14.27;8.40;;;16.80;99.90;;;;;;5103275;28;20959;-82
2021/08/01 01:21:02;;;;;;;14.77;7.90;;;16.80;99.90;;;;;;5102530;28;20451;-82
2021/08/01 01:23:39;;;;;;;13.33;8.60;;;16.80;99.90;;;;;;5100792;28;21001;-82
2021/08/01 01:26:12;;;;;;;13.93;8.10;;;16.90;99.90;;;;;;5100558;28;20450;-82
2021/08/01 01:28:42;;;;;;;14.00;8.33;;;16.80;99.90;;;;;;5101306;28;20447;-81
2021/08/01 01:31:24;;;;;;;13.93;8.63;;;16.80;99.90;;;;;;5101636;28;20481;-82
2021/08/01 01:34:00;;;;;;;12.30;8.00;;;16.80;99.90;;;;;;5101544;28;20454;-82
2021/08/01 01:36:30;;;;;;;11.83;8.00;;;16.80;99.90;;;;;;5080881;28;20486;-83
2021/08/01 01:39:01;;;;;;;13.20;7.93;;;16.80;99.90;;;;;;5081615;28;20437;-82
2021/08/01 01:41:28;;;;;;;11.40;6.93;;;16.80;99.90;;;;;;5082281;28;20477;-82
2021/08/01 01:43:56;;;;;;;12.80;7.50;;;16.80;99.90;;;;;;5080840;28;20483;-81
2021/08/01 01:46:25;;;;;;;12.67;7.60;;;16.80;99.90;;;;;;5081376;28;20952;-81
2021/08/01 01:48:53;;;;;;;13.43;8.00;;;16.80;99.90;;;;;;5086621;28;20452;-82
2021/08/01 01:51:20;;;;;;;13.37;6.73;;;16.80;99.90;;;;;;5100614;28;20451;-82
2021/08/01 01:53:49;;;;;;;11.90;6.60;;;16.80;99.90;;;;;;5101380;28;20836;-82
2021/08/01 01:56:16;;;;;;;12.47;7.00;;;16.70;99.90;;;;;;5101144;28;20446;-82
2021/08/01 01:58:43;;;;;;;12.77;7.23;;;16.70;99.90;;;;;;5100668;28;20541;-82
2021/08/01 02:01:11;;;;;;;13.87;8.50;;;16.60;99.90;;;;;;5100778;28;20927;-81
2021/08/01 02:03:38;;;;;;;11.10;6.83;;;16.70;99.90;;;;;;5100327;28;20476;-82
2021/08/01 02:06:06;;;;;;;12.40;7.40;;;16.70;99.90;;;;;;5100407;28;20454;-82
2021/08/01 02:08:40;;;;;;;12.37;7.70;;;16.70;99.90;;;;;;5100363;28;20446;-81
2021/08/01 02:11:10;;;;;;;15.00;7.87;;;16.70;99.90;;;;;;5101037;28;20452;-81
2021/08/01 02:13:41;;;;;;;12.70;7.37;;;16.70;99.90;;;;;;5101224;28;20444;-82
2021/08/01 02:16:10;;;;;;;13.00;7.90;;;16.70;99.90;;;;;;5101078;28;20464;-82
2021/08/01 02:18:39;;;;;;;12.87;8.10;;;16.70;99.90;;;;;;5102944;28;20531;-82
2021/08/01 02:21:07;;;;;;;16.70;8.97;;;16.80;99.90;;;;;;5113402;28;20540;-81
2021/08/01 02:23:37;;;;;;;13.00;8.03;;;16.70;99.90;;;;;;5113618;28;20549;-82
2021/08/01 02:26:05;;;;;;;13.93;8.63;;;16.80;99.90;;;;;;5109674;28;20457;-82
2021/08/01 02:28:35;;;;;;;14.77;9.17;;;16.80;99.90;;;;;;5100579;28;20454;-82
2021/08/01 02:31:03;;;;;;;15.60;8.90;;;16.80;99.90;;;;;;5099787;28;20449;-81
2021/08/01 02:33:30;;;;;;;12.40;7.57;;;16.80;99.90;;;;;;5099599;28;20477;-81
2021/08/01 02:35:59;;;;;;;12.30;7.30;;;16.80;99.90;;;;;;5099728;28;20448;-81
2021/08/01 02:38:29;;;;;;;15.23;8.47;;;16.80;99.90;;;;;;5099154;28;20544;-81
2021/08/01 02:41:00;;;;;;;16.03;9.23;;;16.80;99.90;;;;;;5100106;28;20461;-80
2021/08/01 02:43:30;;;;;;;12.83;7.57;;;16.80;99.90;;;;;;5099959;28;20482;-81
2021/08/01 02:45:59;;;;;;;13.80;8.37;;;16.90;99.90;;;;;;5099908;28;20461;-81
2021/08/01 02:48:28;;;;;;;14.00;7.50;;;16.90;99.90;;;;;;5099206;28;20460;-81
2021/08/01 02:51:00;;;;;;;15.73;8.97;;;16.80;99.90;;;;;;5099518;28;20457;-80
2021/08/01 02:53:31;;;;;;;13.23;8.80;;;16.90;99.90;;;;;;5099338;28;20469;-81
2021/08/01 02:56:00;;;;;;;13.87;7.60;;;16.90;99.90;;;;;;5099627;28;20446;-80
2021/08/01 02:58:29;;;;;;;12.63;7.40;;;16.90;99.90;;;;;;5099053;28;20847;-82
2021/08/01 03:00:58;;;;;;;16.03;9.47;;;16.90;99.90;;;;;;5099807;28;20544;-81
2021/08/01 03:03:26;;;;;;;13.20;7.70;;;16.80;99.90;;;;;;5099254;28;20484;-81
2021/08/01 03:05:54;;;;;;;14.00;8.53;;;16.90;99.90;;;;;;5099886;28;20837;-81
2021/08/01 03:08:22;;;;;;;15.77;9.00;;;16.80;99.90;;;;;;5099485;28;20453;-81
2021/08/01 03:10:49;;;;;;;15.10;9.77;;;16.80;99.90;;;;;;5099275;28;20833;-81
2021/08/01 03:13:16;;;;;;;14.53;9.47;;;16.80;99.90;;;;;;5099631;28;20462;-81
2021/08/01 03:15:43;;;;;;;14.87;9.00;;;16.80;99.90;;;;;;5099247;28;20450;-80
2021/08/01 03:18:12;;;;;;;15.40;9.23;;;16.80;99.90;;;;;;5097860;28;20450;-81
2021/08/01 03:20:39;;;;;;;12.73;8.23;;;16.80;99.90;;;;;;5099006;28;20450;-82
2021/08/01 03:23:06;;;;;;;14.07;9.00;;;16.80;99.90;;;;;;5099321;28;20473;-81
2021/08/01 03:25:34;;;;;;;16.43;9.97;;;16.70;99.90;;;;;;5098410;28;20489;-81
2021/08/01 03:28:01;;;;;;;18.23;10.37;;;16.70;99.90;;;;;;5099406;28;20465;-81
2021/08/01 03:30:28;;;;;;;15.90;9.93;;;16.70;99.90;;;;;;5106257;28;20951;-81
2021/08/01 03:32:56;;;;;;;13.67;8.53;;;16.70;99.90;;;;;;5101714;28;20482;-80
2021/08/01 03:35:24;;;;;;;16.00;9.53;;;16.70;99.90;;;;;;5101228;28;20437;-80
2021/08/01 03:37:51;;;;;;;13.13;8.60;;;16.70;99.90;;;;;;5094383;28;20464;-81
2021/08/01 03:40:18;;;;;;;15.33;10.23;;;16.70;99.90;;;;;;5093687;28;20454;-81
2021/08/01 03:42:45;;;;;;;16.73;9.93;;;16.60;99.90;;;;;;5092819;28;21016;-80
2021/08/01 03:45:12;;;;;;;17.40;10.40;;;16.60;99.90;;;;;;5077065;28;20483;-81
2021/08/01 03:47:39;;;;;;;16.63;12.03;;;16.60;99.90;;;;;;5091733;28;20433;-81
2021/08/01 03:50:07;;;;;;;17.43;10.70;;;16.60;99.90;;;;;;5112775;28;20471;-81
2021/08/01 03:52:36;;;;;;;16.70;11.30;;;16.50;99.90;;;;;;5112961;28;20479;-81
2021/08/01 03:55:03;;;;;;;15.77;10.37;;;16.60;99.90;;;;;;5112801;28;20448;-81
2021/08/01 03:57:30;;;;;;;14.70;10.33;;;16.60;99.90;;;;;;5109416;28;20463;-80
2021/08/01 03:59:56;;;;;;;20.27;13.63;;;16.60;99.90;;;;;;5092756;28;20479;-82
2021/08/01 04:02:23;;;;;;;16.43;11.10;;;16.60;99.90;;;;;;5092975;28;20469;-81
2021/08/01 04:04:50;;;;;;;16.40;11.00;;;16.60;99.90;;;;;;5092620;28;20492;-81
2021/08/01 04:07:17;;;;;;;19.63;10.93;;;16.60;99.90;;;;;;5092735;28;20446;-81
2021/08/01 04:09:45;;;;;;;18.70;12.50;;;16.60;99.90;;;;;;5094077;28;20458;-80
2021/08/01 04:12:12;;;;;;;18.63;11.10;;;16.60;99.90;;;;;;5099017;28;20512;-83
2021/08/01 04:14:39;;;;;;;15.03;10.80;;;16.70;99.90;;;;;;5102986;28;20454;-83
2021/08/01 04:17:07;;;;;;;21.47;14.37;;;16.60;99.90;;;;;;5102708;28;20892;-83
2021/08/01 04:19:33;;;;;;;22.27;15.67;;;16.60;99.90;;;;;;5102622;28;21150;-83
2021/08/01 04:22:01;;;;;;;24.57;14.40;;;16.50;99.90;;;;;;5102766;28;20470;-83
2021/08/01 04:24:27;;;;;;;22.20;15.17;;;16.60;99.90;;;;;;5102902;28;20549;-83
2021/08/01 04:26:56;;;;;;;24.40;14.47;;;16.70;99.90;;;;;;5102878;28;20542;-83
2021/08/01 04:29:23;;;;;;;23.90;14.00;;;16.80;99.90;;;;;;5102063;28;20450;-83
2021/08/01 04:31:49;;;;;;;20.93;13.87;;;16.80;99.90;;;;;;5103401;28;20488;-83
2021/08/01 04:34:17;;;;;;;19.07;12.97;;;16.80;99.90;;;;;;5101561;28;21000;-81
2021/08/01 04:36:43;;;;;;;18.90;13.17;;;16.80;99.90;;;;;;5100923;28;20453;-82
2021/08/01 04:39:10;;;;;;;18.27;12.73;;;16.90;99.90;;;;;;5101033;28;20623;-81
2021/08/01 04:41:37;;;;;;;17.33;11.30;;;16.80;99.90;;;;;;5100316;28;20478;-81
2021/08/01 04:44:06;;;;;;;17.20;10.73;;;16.90;99.90;;;;;;5100395;28;20459;-81
2021/08/01 04:46:33;;;;;;;15.97;10.77;;;16.90;99.90;;;;;;5099535;28;20894;-81
2021/08/01 04:49:00;;;;;;;17.33;11.13;;;16.80;99.90;;;;;;5099479;28;20472;-81
2021/08/01 04:51:27;;;;;;;16.30;11.80;;;16.90;99.90;;;;;;5098879;28;20457;-81
2021/08/01 04:53:54;;;;;;;14.13;10.20;;;16.90;99.90;;;;;;5100297;28;20462;-82
2021/08/01 04:56:20;;;;;;;17.63;10.23;;;16.90;99.90;;;;;;5099551;28;20457;-82
2021/08/01 04:58:47;;;;;;;15.90;11.37;;;16.90;99.90;;;;;;5099593;28;20454;-82
2021/08/01 05:01:17;;;;;;;16.63;10.53;;;16.90;99.90;;;;;;5099537;28;20533;-83
2021/08/01 05:03:44;;;;;;;15.20;9.50;;;16.90;99.90;;;;;;5104814;28;20475;-82
2021/08/01 05:06:11;;;;;;;13.70;9.57;;;17.00;99.90;;;;;;5114693;28;20534;-81
2021/08/01 05:08:38;;;;;;;16.07;9.50;;;16.90;99.90;;;;;;5114943;28;20525;-81
2021/08/01 05:11:05;;;;;;;14.87;9.50;;;16.90;99.90;;;;;;5115863;28;20896;-82
2021/08/01 05:13:31;;;;;;;15.40;10.47;;;16.90;99.90;;;;;;5111235;28;21025;-83
2021/08/01 05:15:58;;;;;;;16.30;10.23;;;17.00;99.90;;;;;;5102768;28;20443;-82
2021/08/01 05:20:54;;;;;;;15.30;10.07;;;17.00;99.90;;;;;;5074344;28;20541;-81
2021/08/01 05:23:21;;;;;;;13.27;9.10;;;17.00;99.90;;;;;;5075484;28;20533;-82
2021/08/01 05:25:48;;;;;;;14.93;9.57;;;17.00;99.90;;;;;;5079140;28;20487;-83
2021/08/01 05:28:15;;;;;;;16.50;8.60;;;17.10;99.90;;;;;;5078932;28;20959;-83
2021/08/01 05:30:42;;;;;;;16.07;8.97;;;17.10;99.90;;;;;;5093439;28;20469;-83
2021/08/01 05:33:10;;;;;;;14.93;8.87;;;17.10;99.90;;;;;;5079032;28;20444;-83
2021/08/01 05:35:37;;;;;;;19.63;10.47;;;17.10;99.90;;;;;;5079672;28;20456;-83
2021/08/01 05:38:05;;;;;;;13.90;8.97;;;17.10;99.90;;;;;;5079407;28;20512;-83
2021/08/01 05:40:32;;;;;;;13.37;8.67;;;17.00;99.90;;;;;;5079648;28;20471;-82
2021/08/01 05:43:00;;;;;;;16.93;9.10;;;17.00;99.90;;;;;;5078885;28;20525;-82
2021/08/01 05:45:27;;;;;;;14.57;9.73;;;17.00;99.90;;;;;;5079452;28;20488;-83
2021/08/01 05:47:54;;;;;;;18.47;10.53;;;17.00;99.90;;;;;;5086537;28;20448;-84
2021/08/01 05:50:21;;;;;;;15.67;9.47;;;17.00;99.90;;;;;;5103239;28;20893;-84
2021/08/01 05:52:48;;;;;;;15.80;10.00;;;16.90;99.90;;;;;;5103709;28;20945;-85
2021/08/01 05:55:17;;;;;;;14.97;9.57;;;16.90;99.90;;;;;;5102481;28;20451;-85
2021/08/01 05:57:44;;;;;;;16.77;10.10;;;16.80;99.90;;;;;;5103652;28;20529;-85
2021/08/01 06:00:11;;;;;;;13.40;8.90;;;16.80;99.90;;;;;;5103721;28;20853;-85
2021/08/01 06:02:38;;;;;;;18.67;10.77;;;16.80;99.90;;;;;;5103359;28;20463;-86
2021/08/01 06:05:06;;;;;;;17.03;11.17;;;16.90;99.90;;;;;;5101251;28;20481;-85
2021/08/01 06:07:33;;;;;;;21.37;10.80;;;16.90;99.90;;;;;;5103382;28;20526;-86
2021/08/01 06:10:00;;;;;;;19.43;11.63;;;17.00;99.90;;;;;;5105647;28;20465;-84
2021/08/01 06:12:28;;;;;;;15.93;10.33;;;17.00;99.90;;;;;;5112727;28;20484;-84
2021/08/01 06:14:55;;;;;;;16.30;10.40;;;17.10;99.90;;;;;;5113074;28;20474;-85
2021/08/01 06:17:23;;;;;;;25.70;11.67;;;17.20;99.90;;;;;;5111861;28;20451;-84
2021/08/01 06:19:54;;;;;;;18.90;13.03;;;17.30;99.90;;;;;;5111798;28;20534;-84
2021/08/01 06:22:21;;;;;;;18.33;11.97;;;17.30;99.90;;;;;;5098228;28;20468;-84
2021/08/01 06:24:48;;;;;;;17.07;11.47;;;17.50;99.90;;;;;;5100795;28;20502;-84
2021/08/01 06:27:15;;;;;;;25.90;14.37;;;17.50;99.90;;;;;;5112839;28;20490;-83
2021/08/01 06:29:43;;;;;;;20.40;14.47;;;17.50;99.90;;;;;;5111699;28;20544;-84
2021/08/01 06:32:10;;;;;;;26.00;17.90;;;17.50;99.90;;;;;;5098458;28;20949;-83
2021/08/01 06:34:37;;;;;;;25.50;17.57;;;17.50;99.90;;;;;;5097001;28;20505;-82
2021/08/01 06:37:04;;;;;;;28.60;19.30;;;17.50;99.90;;;;;;5094958;28;20537;-84
2021/08/01 06:39:31;;;;;;;30.53;18.20;;;17.50;99.90;;;;;;5089858;28;20526;-84
2021/08/01 06:41:57;;;;;;;25.03;18.67;;;17.50;99.90;;;;;;5090551;28;20473;-84
2021/08/01 06:44:24;;;;;;;29.40;19.27;;;17.70;99.90;;;;;;5087108;28;20452;-84
2021/08/01 06:46:52;;;;;;;24.40;18.17;;;17.70;99.90;;;;;;5088397;28;20523;-84
2021/08/01 06:49:19;;;;;;;26.57;18.80;;;17.80;99.90;;;;;;5088252;28;20470;-84
2021/08/01 06:51:46;;;;;;;29.77;20.00;;;17.80;99.90;;;;;;5092687;28;20936;-84
2021/08/01 06:54:13;;;;;;;23.90;18.70;;;17.90;99.90;;;;;;5088115;28;20541;-84
2021/08/01 06:56:40;;;;;;;28.10;18.80;;;17.90;99.90;;;;;;5080717;28;20475;-84
2021/08/01 06:59:07;;;;;;;25.77;17.20;;;18.00;99.90;;;;;;5088834;28;20565;-84
2021/08/01 07:01:38;;;;;;;23.43;18.40;;;18.20;99.90;;;;;;5099823;28;20451;-84
2021/08/01 07:04:07;;;;;;;22.63;17.40;;;18.30;99.90;;;;;;5094571;28;20443;-84
2021/08/01 07:06:34;;;;;;;29.10;20.57;;;18.50;99.90;;;;;;5096212;28;20476;-84
2021/08/01 07:09:00;;;;;;;25.07;17.70;;;18.60;99.90;;;;;;5086349;28;20468;-83
2021/08/01 07:11:28;;;;;;;33.03;21.93;;;18.60;99.90;;;;;;5093415;28;20441;-84
2021/08/01 07:13:55;;;;;;;27.57;19.23;;;18.50;99.90;;;;;;5092457;28;20500;-83
2021/08/01 07:16:21;;;;;;;24.93;19.20;;;18.50;99.90;;;;;;5092884;28;20477;-84
2021/08/01 07:18:48;;;;;;;22.10;17.30;;;18.60;99.90;;;;;;5093483;28;20491;-84
2021/08/01 07:21:17;;;;;;;19.67;14.07;;;18.60;99.90;;;;;;5084106;28;20710;-83
2021/08/01 07:23:44;;;;;;;17.10;11.50;;;18.60;99.90;;;;;;5095812;28;20463;-82
2021/08/01 07:26:11;;;;;;;17.67;10.80;;;18.70;99.90;;;;;;5106231;28;20499;-83
2021/08/01 07:28:38;;;;;;;14.90;8.83;;;18.60;99.90;;;;;;5099437;28;20471;-84
2021/08/01 07:31:05;;;;;;;15.43;9.20;;;18.50;99.90;;;;;;5106590;28;20454;-84
2021/08/01 07:33:31;;;;;;;15.17;8.20;;;18.60;99.90;;;;;;5098945;28;20532;-83
2021/08/01 07:35:58;;;;;;;15.37;8.20;;;18.60;99.90;;;;;;5088171;28;20547;-85
2021/08/01 07:38:26;;;;;;;14.63;6.63;;;18.50;99.90;;;;;;5084705;28;20553;-84
2021/08/01 07:40:53;;;;;;;23.87;7.50;;;18.70;99.90;;;;;;5086474;28;20512;-83
2021/08/01 07:43:20;;;;;;;13.50;6.77;;;18.80;99.90;;;;;;5086962;28;20535;-84
2021/08/01 07:45:47;;;;;;;14.90;7.03;;;18.90;99.90;;;;;;5084125;28;20495;-84
2021/08/01 07:48:14;;;;;;;16.20;5.90;;;19.10;99.90;;;;;;5086261;28;20451;-84
2021/08/01 07:50:40;;;;;;;13.57;6.10;;;19.30;99.90;;;;;;5086701;28;20581;-84
2021/08/01 07:53:07;;;;;;;18.73;6.03;;;19.60;99.90;;;;;;5087875;28;20518;-84
2021/08/01 07:55:36;;;;;;;19.60;5.47;;;19.60;99.90;;;;;;5089332;28;20450;-84
2021/08/01 07:58:03;;;;;;;18.17;6.50;;;19.60;99.90;;;;;;5085085;28;20518;-83
2021/08/01 08:00:30;;;;;;;13.67;5.37;;;19.40;99.90;;;;;;5075553;28;20480;-84
2021/08/01 08:02:56;;;;;;;15.03;5.73;;;19.40;99.90;;;;;;5076355;28;20465;-84
2021/08/01 08:05:23;;;;;;;14.10;5.67;;;19.40;99.90;;;;;;5093500;28;20491;-84
2021/08/01 08:07:50;;;;;;;18.60;4.90;;;19.40;99.90;;;;;;5094996;28;20824;-85
2021/08/01 08:10:17;;;;;;;13.70;4.83;;;19.30;99.90;;;;;;5094839;28;20482;-83
2021/08/01 08:12:45;;;;;;;16.90;5.33;;;19.40;99.90;;;;;;5095377;28;20449;-85
2021/08/01 08:15:13;;;;;;;12.93;4.73;;;19.70;99.90;;;;;;5095199;28;20442;-84
2021/08/01 08:17:42;;;;;;;14.63;4.50;;;19.80;99.90;;;;;;5094895;28;20450;-84
2021/08/01 08:20:10;;;;;;;13.10;3.90;;;19.80;99.90;;;;;;5078659;28;20508;-85
2021/08/01 08:22:37;;;;;;;16.70;4.50;;;19.80;99.90;;;;;;5085447;28;20461;-84
2021/08/01 08:25:06;;;;;;;14.70;3.93;;;19.60;99.90;;;;;;5094678;28;20478;-84
2021/08/01 08:27:33;;;;;;;12.27;3.43;;;19.50;99.90;;;;;;5093878;28;20452;-84
2021/08/01 08:30:01;;;;;;;13.30;4.50;;;19.70;99.90;;;;;;5093931;28;20482;-84
2021/08/01 08:32:28;;;;;;;13.00;4.30;;;19.70;99.90;;;;;;5093890;28;20457;-85
2021/08/01 08:34:54;;;;;;;11.33;3.50;;;19.70;99.90;;;;;;5091117;28;20469;-83
2021/08/01 08:37:21;;;;;;;13.27;4.00;;;19.90;99.90;;;;;;5080340;28;20451;-84
2021/08/01 08:39:48;;;;;;;13.83;3.63;;;20.10;99.90;;;;;;5084930;28;20468;-84
2021/08/01 08:42:16;;;;;;;14.33;4.83;;;19.90;99.90;;;;;;5085612;28;20442;-84
2021/08/01 08:44:43;;;;;;;11.27;4.40;;;20.00;99.90;;;;;;5087673;28;20450;-84
2021/08/01 08:47:16;;;;;;;14.07;4.07;;;20.10;99.90;;;;;;5075349;28;21041;-85
2021/08/01 08:49:45;;;;;;;12.57;5.30;;;20.40;99.90;;;;;;5077259;28;20528;-84
2021/08/01 08:52:12;;;;;;;16.07;6.47;;;20.60;99.90;;;;;;5078123;28;20457;-84
2021/08/01 08:54:42;;;;;;;16.97;7.30;;;20.60;99.90;;;;;;5085430;28;20828;-83
2021/08/01 08:57:20;;;;;;;18.33;6.77;;;20.70;99.90;;;;;;5085062;28;20452;-84
2021/08/01 08:59:47;;;;;;;14.60;5.77;;;20.60;99.90;;;;;;5090628;28;20477;-86
2021/08/01 09:02:15;;;;;;;14.20;4.43;;;20.50;99.90;;;;;;5093177;28;20464;-83
2021/08/01 09:04:45;;;;;;;12.27;5.17;;;20.60;99.90;;;;;;5089056;28;20449;-84
2021/08/01 09:07:12;;;;;;;15.23;5.90;;;20.50;99.90;;;;;;5092020;28;20485;-85
2021/08/01 09:09:38;;;;;;;16.47;6.20;;;20.30;99.90;;;;;;5080782;28;20498;-84
2021/08/01 09:12:05;;;;;;;16.73;5.60;;;20.10;99.90;;;;;;5086530;28;20530;-84
2021/08/01 09:14:32;;;;;;;30.63;7.23;;;20.30;99.90;;;;;;5089775;28;20452;-85
2021/08/01 09:16:59;;;;;;;15.93;5.80;;;20.70;99.90;;;;;;5075457;28;20999;-85
2021/08/01 09:19:30;;;;;;;14.10;5.77;;;21.20;99.90;;;;;;5080244;28;20487;-85
2021/08/01 09:22:12;;;;;;;12.90;5.20;;;21.80;99.90;;;;;;5092049;28;20464;-84
2021/08/01 09:24:39;;;;;;;17.57;5.50;;;22.20;99.90;;;;;;5089727;28;20462;-84
2021/08/01 09:27:06;;;;;;;18.00;4.40;;;22.60;99.90;;;;;;5095441;28;20492;-85
2021/08/01 09:29:46;;;;;;;15.93;3.93;;;22.70;99.90;;;;;;5081207;28;21065;-85
2021/08/01 09:32:14;;;;;;;15.40;3.80;;;22.50;99.90;;;;;;5076200;28;20453;-84
2021/08/01 09:34:46;;;;;;;12.20;3.50;;;22.60;99.90;;;;;;5079107;28;21043;-85
2021/08/01 09:37:13;;;;;;;30.23;4.60;;;22.40;99.90;;;;;;5081859;28;20434;-87
2021/08/01 09:39:41;;;;;;;16.87;3.50;;;22.60;99.90;;;;;;5101171;28;20476;-84
2021/08/01 09:42:09;;;;;;;13.53;3.27;;;22.80;99.90;;;;;;5101634;28;20906;-85
2021/08/01 09:44:38;;;;;;;16.47;2.30;;;23.40;99.90;;;;;;5090617;28;20485;-86
2021/08/01 09:47:05;;;;;;;14.87;3.00;;;23.60;99.90;;;;;;5086383;28;20566;-84
2021/08/01 09:49:32;;;;;;;14.50;2.90;;;23.10;99.90;;;;;;5081957;28;20851;-84
2021/08/01 09:52:02;;;;;;;16.17;2.90;;;22.50;99.90;;;;;;5072177;28;20469;-85
2021/08/01 09:54:45;;;;;;;17.83;3.00;;;22.70;99.90;;;;;;5076920;28;20478;-83
2021/08/01 09:57:17;;;;;;;18.00;3.30;;;23.00;99.90;;;;;;5077728;28;20458;-85
2021/08/01 09:59:44;;;;;;;15.30;3.43;;;22.30;99.90;;;;;;5072579;28;20471;-84
2021/08/01 10:02:11;;;;;;;15.43;3.17;;;22.40;99.90;;;;;;5079158;28;20459;-84
2021/08/01 10:04:38;;;;;;;15.00;2.80;;;22.70;99.90;;;;;;5082443;28;20451;-84
2021/08/01 10:07:08;;;;;;;12.23;2.30;;;22.90;99.90;;;;;;5076683;28;20493;-84
2021/08/01 10:09:36;;;;;;;16.13;2.93;;;23.50;99.90;;;;;;5081889;28;20489;-84
2021/08/01 10:12:03;;;;;;;15.30;2.60;;;23.60;99.90;;;;;;5074243;28;20447;-84
2021/08/01 10:14:30;;;;;;;15.23;2.73;;;23.40;99.90;;;;;;5074156;28;20969;-83
2021/08/01 10:16:58;;;;;;;15.20;3.83;;;22.70;99.90;;;;;;5073708;28;20538;-83
2021/08/01 10:19:25;;;;;;;17.00;3.43;;;21.90;99.90;;;;;;5075900;28;20482;-84
2021/08/01 10:21:57;;;;;;;17.37;3.00;;;21.60;99.90;;;;;;5072292;28;20454;-87
2021/08/01 10:24:28;;;;;;;18.90;3.40;;;21.70;99.90;;;;;;5078407;28;20455;-86
2021/08/01 10:27:01;;;;;;;28.07;3.50;;;22.20;99.90;;;;;;5086284;28;20477;-86
2021/08/01 10:29:33;;;;;;;26.17;3.00;;;22.50;99.90;;;;;;5075280;28;21015;-86
2021/08/01 10:32:05;;;;;;;30.50;4.30;;;22.70;99.90;;;;;;5078012;28;20451;-86
2021/08/01 10:34:40;;;;;;;35.33;5.07;;;23.00;99.90;;;;;;5078785;28;20450;-86
2021/08/01 10:37:11;;;;;;;24.73;3.17;;;23.30;99.90;;;;;;5084579;28;20429;-86
2021/08/01 10:39:44;;;;;;;37.13;3.70;;;23.40;99.90;;;;;;5089005;28;20574;-85
2021/08/01 10:42:12;;;;;;;32.43;4.60;;;23.00;99.90;;;;;;5078425;28;20545;-86
2021/08/01 10:44:40;;;;;;;40.07;4.50;;;22.90;99.90;;;;;;5085169;28;20453;-86
2021/08/01 10:47:14;;;;;;;44.77;3.70;;;23.30;99.90;;;;;;5085537;28;20486;-85
2021/08/01 10:49:43;;;;;;;57.20;10.40;;;23.80;99.90;;;;;;5090362;28;20941;-85
2021/08/01 10:52:18;;;;;;;39.27;3.80;;;23.50;99.90;;;;;;5092257;28;20472;-86
2021/08/01 10:55:03;;;;;;;40.10;3.97;;;23.40;99.90;;;;;;5090055;28;20450;-85
2021/08/01 10:57:35;;;;;;;41.37;3.40;;;23.60;99.90;;;;;;5085367;28;20463;-86
2021/08/01 11:00:09;;;;;;;60.17;14.97;;;24.30;99.90;;;;;;5085125;28;20469;-85
2021/08/01 11:02:37;;;;;;;56.53;9.93;;;24.60;99.90;;;;;;5088639;28;20440;-86
2021/08/01 11:05:33;;;;;;;42.47;5.10;;;24.40;99.90;;;;;;5084953;28;20805;-86
2021/08/01 11:08:08;;;;;;;40.40;4.33;;;24.30;99.90;;;;;;5084474;28;20496;-86
2021/08/01 11:10:41;;;;;;;79.73;66.70;;;25.00;99.90;;;;;;5085705;28;20840;-87
2021/08/01 11:13:53;;;;;;;236.17;220.87;;;25.60;99.90;;;;;;5076217;28;20451;-86
2021/08/01 11:16:48;;;;;;;122.43;111.47;;;25.90;99.90;;;;;;5070614;28;20431;-87
2021/08/01 11:20:03;;;;;;;290.60;273.33;;;25.50;99.90;;;;;;5107177;22;20670;-83
2021/08/01 11:22:52;;;;;;;249.90;234.23;;;25.40;99.90;;;;;;5100256;28;20441;-85
2021/08/01 11:25:26;;;;;;;379.57;356.50;;;25.00;99.90;;;;;;5117409;28;20443;-83
2021/08/01 11:34:49;;;;;;;76.57;66.40;;;24.30;99.90;;;;;;5038086;28;20478;-83
2021/08/01 11:37:25;;;;;;;252.07;236.77;;;23.90;99.90;;;;;;5070715;28;20719;-85
2021/08/01 11:39:55;;;;;;;86.77;75.93;;;23.50;99.90;;;;;;5087122;28;20462;-85
2021/08/01 11:45:27;;;;;;;407.07;384.23;;;23.70;99.90;;;;;;5066762;28;20451;-85
2021/08/01 11:48:04;;;;;;;270.20;252.27;;;23.40;99.90;;;;;;5081464;28;20510;-85
2021/08/01 11:50:40;;;;;;;199.40;185.80;;;23.60;99.90;;;;;;5088651;28;20479;-85
2021/08/01 11:53:29;;;;;;;121.17;110.67;;;23.40;99.90;;;;;;5076232;28;20447;-82
2021/08/01 11:55:59;;;;;;;50.50;9.73;;;23.40;99.90;;;;;;5091433;28;20442;-83
2021/08/01 11:58:28;;;;;;;64.60;20.13;;;23.30;99.90;;;;;;5073328;28;20438;-83
2021/08/01 12:00:57;;;;;;;172.23;159.83;;;22.90;99.90;;;;;;5058994;28;20491;-83
2021/08/01 12:03:28;;;;;;;90.80;81.47;;;23.00;99.90;;;;;;5066906;28;20482;-84
2021/08/01 12:05:56;;;;;;;295.13;277.30;;;23.20;99.90;;;;;;5071142;28;20451;-83
2021/08/01 12:08:30;;;;;;;225.10;210.63;;;22.70;99.90;;;;;;5072706;28;20510;-83
2021/08/01 12:11:12;;;;;;;136.07;125.63;;;22.40;99.90;;;;;;5080760;28;20471;-84
2021/08/01 12:13:40;;;;;;;503.23;475.50;;;22.50;99.90;;;;;;5092571;28;20493;-83
2021/08/01 12:16:19;;;;;;;127.13;116.33;;;23.10;99.90;;;;;;5100874;28;20448;-82
2021/08/01 12:18:46;;;;;;;402.77;378.50;;;24.30;99.90;;;;;;5085932;28;20437;-84
2021/08/01 12:21:30;;;;;;;229.30;209.57;;;25.20;99.90;;;;;;5085828;28;20543;-84
2021/08/01 12:23:59;;;;;;;1381.03;705.63;;;26.00;99.90;;;;;;5086842;28;20443;-85
2021/08/01 12:26:37;;;;;;;1999.90;999.90;;;26.20;99.90;;;;;;5081146;28;20431;-82
2021/08/01 12:29:06;;;;;;;1999.90;999.90;;;26.60;99.90;;;;;;5079460;28;20910;-83
2021/08/01 12:31:38;;;;;;;1999.90;999.90;;;26.40;99.90;;;;;;5090719;28;20457;-83
2021/08/01 12:34:05;;;;;;;1999.90;999.90;;;26.40;99.90;;;;;;5084751;28;20451;-82
2021/08/01 12:36:32;;;;;;;1999.90;999.90;;;26.20;99.90;;;;;;5081087;28;20526;-83
2021/08/01 12:39:06;;;;;;;1999.90;999.90;;;26.00;99.90;;;;;;5086617;28;20934;-83
2021/08/01 12:41:38;;;;;;;1999.90;999.90;;;25.80;99.90;;;;;;5090092;28;20443;-82
2021/08/01 12:44:17;;;;;;;850.07;794.53;;;24.90;99.90;;;;;;5095214;28;20442;-84
2021/08/01 12:46:48;;;;;;;950.20;595.00;;;25.50;99.90;;;;;;5068144;28;20564;-83
2021/08/01 12:49:15;;;;;;;1999.90;999.90;;;25.30;99.90;;;;;;5094664;28;20535;-84
2021/08/01 12:51:45;;;;;;;679.60;640.20;;;25.20;99.90;;;;;;5080597;28;20444;-82
2021/08/01 12:54:12;;;;;;;764.97;413.57;;;26.10;99.90;;;;;;5075519;28;20956;-82